Time;durP1;ratioP1;P1;durP2;ratioP2;P2;SDS_P1;SDS_P2;PMS_P1;PMS_P2;Temp;Humidity;BMP_temperature;BMP_pressure;BME280_temperature;BME280_humidity;BME280_pressure;Samples;Min_cycle;Max_cycle;Signal;HPM_P1;HPM_P2
2024/02/02 00:01:38;;;;;;;6.30;2.87;;;8.30;99.90;;;;;;5052762;28;20201;-60
2024/02/02 00:04:05;;;;;;;4.67;2.70;;;8.20;99.90;;;;;;5052905;28;20221;-60
2024/02/02 00:06:33;;;;;;;7.10;3.10;;;8.20;99.90;;;;;;5052820;28;20668;-59
2024/02/02 00:08:59;;;;;;;5.97;3.70;;;8.10;99.90;;;;;;5052739;28;20198;-59
2024/02/02 00:11:26;;;;;;;4.87;3.07;;;8.00;99.90;;;;;;5052656;28;20276;-60
2024/02/02 00:13:53;;;;;;;5.27;3.33;;;7.90;99.90;;;;;;5052696;28;20252;-59
2024/02/02 00:16:20;;;;;;;7.93;2.60;;;7.70;99.90;;;;;;5052430;28;20221;-62
2024/02/02 00:18:46;;;;;;;3.73;2.43;;;7.70;99.90;;;;;;5052654;28;20202;-59
2024/02/02 00:21:12;;;;;;;4.63;2.53;;;7.80;99.90;;;;;;5052744;28;20216;-59
2024/02/02 00:23:40;;;;;;;4.67;2.53;;;7.70;99.90;;;;;;5052613;28;20474;-59
2024/02/02 00:26:07;;;;;;;4.80;2.60;;;7.60;99.90;;;;;;5052484;28;20218;-59
2024/02/02 00:28:33;;;;;;;5.70;3.00;;;7.60;99.90;;;;;;5051981;28;20206;-58
2024/02/02 00:31:00;;;;;;;4.10;2.60;;;7.50;99.90;;;;;;5052414;28;20205;-59
2024/02/02 00:33:27;;;;;;;6.50;2.70;;;7.50;99.90;;;;;;5052346;28;20221;-59
2024/02/02 00:35:53;;;;;;;5.33;2.90;;;7.50;99.90;;;;;;5052390;28;20229;-59
2024/02/02 00:38:20;;;;;;;5.30;2.77;;;7.50;99.90;;;;;;5052009;28;20206;-58
2024/02/02 00:40:48;;;;;;;4.33;2.70;;;7.40;99.90;;;;;;5052362;28;20202;-61
2024/02/02 00:43:15;;;;;;;4.67;2.70;;;7.30;99.90;;;;;;5052202;28;20226;-61
2024/02/02 00:45:41;;;;;;;4.37;2.80;;;7.20;99.90;;;;;;5051798;28;20217;-58
2024/02/02 00:48:08;;;;;;;4.23;2.60;;;7.20;99.90;;;;;;5052060;28;20209;-58
2024/02/02 00:50:35;;;;;;;4.13;2.53;;;7.10;99.90;;;;;;5051941;28;20210;-61
2024/02/02 00:53:01;;;;;;;4.90;2.70;;;7.00;99.90;;;;;;5051919;28;20667;-58
2024/02/02 00:55:28;;;;;;;8.17;2.80;;;7.00;99.90;;;;;;5051820;28;20221;-60
2024/02/02 00:57:56;;;;;;;4.33;3.10;;;7.00;99.90;;;;;;5051759;28;20312;-58
2024/02/02 01:00:23;;;;;;;5.60;2.80;;;6.90;99.90;;;;;;5051314;28;20214;-59
2024/02/02 01:02:49;;;;;;;5.80;3.10;;;6.80;99.90;;;;;;5052058;28;20201;-59
2024/02/02 01:05:16;;;;;;;6.87;3.37;;;6.70;99.90;;;;;;5051956;28;20221;-59
2024/02/02 01:07:43;;;;;;;8.10;3.80;;;6.60;99.90;;;;;;5051525;28;20205;-59
2024/02/02 01:10:16;;;;;;;5.33;3.23;;;6.50;99.90;;;;;;5051820;28;20293;-59
2024/02/02 01:12:43;;;;;;;6.07;3.20;;;6.40;99.90;;;;;;5051521;28;20206;-58
2024/02/02 01:15:11;;;;;;;6.37;3.50;;;6.30;99.90;;;;;;5051905;28;20221;-59
2024/02/02 01:17:38;;;;;;;9.50;3.30;;;6.30;99.90;;;;;;5051331;28;20209;-59
2024/02/02 01:20:06;;;;;;;4.83;3.07;;;6.20;99.90;;;;;;5051814;28;20232;-58
2024/02/02 01:22:33;;;;;;;4.30;3.30;;;6.20;99.90;;;;;;5051387;28;20205;-59
2024/02/02 01:25:00;;;;;;;9.07;3.90;;;6.20;99.90;;;;;;5051494;28;20217;-61
2024/02/02 01:27:26;;;;;;;7.07;4.50;;;6.20;99.90;;;;;;5051430;28;20280;-60
2024/02/02 01:29:53;;;;;;;8.50;4.17;;;6.20;99.90;;;;;;5051454;28;20213;-59
2024/02/02 01:32:21;;;;;;;8.07;4.37;;;6.30;99.90;;;;;;5051487;28;20228;-60
2024/02/02 01:34:48;;;;;;;7.00;4.70;;;6.30;99.90;;;;;;5051547;28;20291;-60
2024/02/02 01:37:14;;;;;;;6.50;4.03;;;6.40;99.90;;;;;;5051313;28;20202;-60
2024/02/02 01:39:41;;;;;;;7.10;4.33;;;6.40;99.90;;;;;;5051358;28;20557;-59
2024/02/02 01:42:07;;;;;;;11.50;4.17;;;6.40;99.90;;;;;;5051367;28;20668;-60
2024/02/02 01:44:34;;;;;;;7.87;3.80;;;6.40;99.90;;;;;;5051113;28;20676;-60
2024/02/02 01:47:02;;;;;;;8.47;3.37;;;6.30;99.90;;;;;;5051095;28;20613;-58
2024/02/02 01:49:30;;;;;;;6.50;3.60;;;6.20;99.90;;;;;;5051388;28;20239;-57
2024/02/02 01:51:57;;;;;;;7.00;3.60;;;6.20;99.90;;;;;;5051524;28;20200;-58
2024/02/02 01:54:24;;;;;;;9.83;4.33;;;6.10;99.90;;;;;;5050992;28;20588;-61
2024/02/02 01:56:51;;;;;;;6.70;4.33;;;6.20;99.90;;;;;;5051223;28;20229;-59
2024/02/02 01:59:17;;;;;;;6.93;4.00;;;6.20;99.90;;;;;;5051419;28;20208;-58
2024/02/02 02:01:44;;;;;;;5.27;3.77;;;6.30;99.90;;;;;;5051186;28;20668;-59
2024/02/02 02:04:11;;;;;;;6.93;4.17;;;6.40;99.90;;;;;;5051375;28;20201;-59
2024/02/02 02:06:40;;;;;;;7.53;4.33;;;6.40;99.90;;;;;;5050975;28;20205;-59
2024/02/02 02:09:09;;;;;;;8.00;4.17;;;6.40;99.90;;;;;;5050906;28;20220;-59
2024/02/02 02:11:35;;;;;;;5.40;3.97;;;6.50;99.90;;;;;;5051666;28;20237;-58
2024/02/02 02:14:03;;;;;;;7.37;4.23;;;6.50;99.90;;;;;;5054945;28;20232;-59
2024/02/02 02:16:29;;;;;;;8.70;4.43;;;6.60;99.90;;;;;;5054956;28;20346;-59
2024/02/02 02:18:56;;;;;;;9.10;4.27;;;6.60;99.90;;;;;;5054786;28;20206;-59
2024/02/02 02:21:24;;;;;;;7.47;4.10;;;6.70;99.90;;;;;;5054596;28;20205;-59
2024/02/02 02:23:51;;;;;;;11.10;4.83;;;6.80;99.90;;;;;;5055009;28;20213;-59
2024/02/02 02:26:19;;;;;;;5.70;4.00;;;6.80;99.90;;;;;;5054814;28;20225;-59
2024/02/02 02:28:46;;;;;;;8.57;4.30;;;6.90;99.90;;;;;;5054207;28;20717;-59
2024/02/02 02:31:13;;;;;;;5.43;4.30;;;6.90;99.90;;;;;;5054820;28;20206;-59
2024/02/02 02:33:40;;;;;;;5.87;3.87;;;6.90;99.90;;;;;;5054442;28;20214;-59
2024/02/02 02:36:07;;;;;;;6.40;3.80;;;6.80;99.90;;;;;;5054514;28;20236;-58
2024/02/02 02:38:36;;;;;;;6.17;3.17;;;6.80;99.90;;;;;;5054414;28;20208;-59
2024/02/02 02:41:03;;;;;;;6.30;4.23;;;6.70;99.90;;;;;;5054664;28;20209;-59
2024/02/02 02:43:30;;;;;;;5.83;4.00;;;6.60;99.90;;;;;;5054473;28;20206;-59
2024/02/02 02:45:57;;;;;;;7.27;4.30;;;6.50;99.90;;;;;;5054513;28;20664;-58
2024/02/02 02:48:24;;;;;;;8.57;4.30;;;6.40;99.90;;;;;;5053915;28;20206;-59
2024/02/02 02:50:51;;;;;;;7.13;4.37;;;6.30;99.90;;;;;;5054220;28;20202;-59
2024/02/02 02:53:18;;;;;;;5.73;4.20;;;6.30;99.90;;;;;;5054518;28;20198;-59
2024/02/02 02:55:46;;;;;;;9.90;4.77;;;6.20;99.90;;;;;;5053893;28;20762;-59
2024/02/02 02:58:13;;;;;;;7.40;4.53;;;6.10;99.90;;;;;;5053832;28;20621;-58
2024/02/02 03:00:39;;;;;;;6.83;4.43;;;6.10;99.90;;;;;;5053972;28;20217;-59
2024/02/02 03:03:06;;;;;;;6.80;4.20;;;6.00;99.90;;;;;;5054047;28;20202;-59
2024/02/02 03:05:33;;;;;;;9.47;4.50;;;6.10;99.90;;;;;;5054038;28;20214;-59
2024/02/02 03:07:59;;;;;;;7.60;4.87;;;6.10;99.90;;;;;;5054007;28;20212;-59
2024/02/02 03:10:27;;;;;;;7.03;4.23;;;6.20;99.90;;;;;;5054053;28;20220;-59
2024/02/02 03:12:55;;;;;;;6.27;4.33;;;6.30;99.90;;;;;;5054046;28;20197;-59
2024/02/02 03:15:22;;;;;;;7.43;4.43;;;6.40;99.90;;;;;;5053807;28;20710;-59
2024/02/02 03:17:49;;;;;;;7.73;4.90;;;6.50;99.90;;;;;;5045554;28;20198;-58
2024/02/02 03:20:16;;;;;;;8.77;4.60;;;6.50;99.90;;;;;;5054087;28;20288;-59
2024/02/02 03:22:43;;;;;;;8.70;4.17;;;6.60;99.90;;;;;;5053639;28;20262;-59
2024/02/02 03:25:11;;;;;;;6.87;4.10;;;6.70;99.90;;;;;;5053708;28;20287;-59
2024/02/02 03:27:38;;;;;;;9.43;4.17;;;6.80;99.90;;;;;;5053286;28;20233;-59
2024/02/02 03:30:09;;;;;;;7.30;4.67;;;6.80;99.90;;;;;;5053559;28;20209;-60
2024/02/02 03:32:36;;;;;;;5.10;4.53;;;6.80;99.90;;;;;;5053839;28;20210;-59
2024/02/02 03:35:02;;;;;;;7.17;5.30;;;6.90;99.90;;;;;;5053675;28;20279;-59
2024/02/02 03:37:29;;;;;;;9.70;5.53;;;6.90;99.90;;;;;;5053334;28;20209;-58
2024/02/02 03:39:56;;;;;;;7.67;5.97;;;7.00;99.90;;;;;;5053903;28;20216;-59
2024/02/02 03:42:22;;;;;;;8.77;5.73;;;7.00;99.90;;;;;;5067823;22;20226;-58
2024/02/02 03:44:49;;;;;;;8.73;5.23;;;7.00;99.90;;;;;;5025413;28;20198;-58
2024/02/02 03:47:17;;;;;;;8.60;5.57;;;7.00;99.90;;;;;;5033287;28;20203;-60
2024/02/02 03:49:44;;;;;;;7.97;5.20;;;6.90;99.90;;;;;;5033243;28;20261;-59
2024/02/02 03:52:10;;;;;;;7.13;5.50;;;7.00;99.90;;;;;;5026818;28;20222;-60
2024/02/02 03:54:37;;;;;;;8.30;5.70;;;6.90;99.90;;;;;;5023354;28;20699;-58
2024/02/02 03:57:04;;;;;;;9.17;6.00;;;6.90;99.90;;;;;;5024615;28;20690;-60
2024/02/02 03:59:31;;;;;;;9.00;6.57;;;6.90;99.90;;;;;;5023764;28;20210;-59
2024/02/02 04:01:58;;;;;;;11.67;7.00;;;6.90;99.90;;;;;;5021544;28;20227;-59
2024/02/02 04:04:26;;;;;;;11.27;7.47;;;6.90;99.90;;;;;;5021668;28;20203;-58
2024/02/02 04:06:52;;;;;;;12.97;7.30;;;6.80;99.90;;;;;;5024602;28;20202;-58
2024/02/02 04:09:19;;;;;;;9.83;6.70;;;6.80;99.90;;;;;;5024911;28;20215;-58
2024/02/02 04:11:46;;;;;;;8.93;6.10;;;7.00;99.90;;;;;;5021411;28;20652;-58
2024/02/02 04:14:12;;;;;;;8.70;6.00;;;6.60;99.90;;;;;;5021371;28;20207;-59
2024/02/02 04:16:39;;;;;;;6.83;5.50;;;6.70;99.90;;;;;;5023290;28;20211;-60
2024/02/02 04:19:07;;;;;;;8.23;5.20;;;6.60;99.90;;;;;;5024487;28;20206;-60
2024/02/02 04:21:35;;;;;;;6.53;5.17;;;6.60;99.90;;;;;;5023054;28;20229;-59
2024/02/02 04:24:02;;;;;;;9.10;5.93;;;6.50;99.90;;;;;;5021118;28;20210;-59
2024/02/02 04:26:28;;;;;;;6.57;5.20;;;6.50;99.90;;;;;;5021514;28;20269;-59
2024/02/02 04:28:55;;;;;;;5.73;4.87;;;6.50;99.90;;;;;;5024247;28;20199;-59
2024/02/02 04:31:22;;;;;;;7.70;5.13;;;6.50;99.90;;;;;;5024423;28;20203;-60
2024/02/02 04:33:48;;;;;;;8.80;5.77;;;6.50;99.90;;;;;;5021035;28;20206;-59
2024/02/02 04:36:16;;;;;;;7.93;6.13;;;6.60;99.90;;;;;;5020382;28;20218;-58
2024/02/02 04:38:44;;;;;;;11.23;6.00;;;6.60;99.90;;;;;;5022905;28;20743;-58
2024/02/02 04:41:11;;;;;;;11.57;5.53;;;6.60;99.90;;;;;;5024280;28;20565;-59
2024/02/02 04:43:37;;;;;;;7.93;5.20;;;6.60;99.90;;;;;;5021937;28;20230;-58
2024/02/02 04:46:04;;;;;;;6.20;5.00;;;6.60;99.90;;;;;;5020620;28;20680;-58
2024/02/02 04:48:31;;;;;;;9.57;5.20;;;6.60;99.90;;;;;;5021395;28;20203;-60
2024/02/02 04:50:58;;;;;;;7.37;4.60;;;6.70;99.90;;;;;;5023989;28;20209;-58
2024/02/02 04:53:25;;;;;;;9.80;5.53;;;6.60;99.90;;;;;;5023942;28;20257;-58
2024/02/02 04:55:53;;;;;;;7.83;4.90;;;6.60;99.90;;;;;;5024096;28;20248;-58
2024/02/02 04:58:19;;;;;;;10.30;5.30;;;6.60;99.90;;;;;;5024173;28;20206;-59
2024/02/02 05:00:46;;;;;;;7.00;5.17;;;6.50;99.90;;;;;;5021314;28;20198;-59
2024/02/02 05:03:13;;;;;;;8.17;5.23;;;6.50;99.90;;;;;;5020602;28;20230;-58
2024/02/02 05:05:40;;;;;;;7.07;5.37;;;6.60;99.90;;;;;;5022358;28;20293;-58
2024/02/02 05:08:07;;;;;;;8.17;5.27;;;6.60;99.90;;;;;;5023493;28;20210;-58
2024/02/02 05:10:33;;;;;;;9.10;5.47;;;6.60;99.90;;;;;;5022584;28;20206;-58
2024/02/02 05:13:01;;;;;;;7.13;5.50;;;6.60;99.90;;;;;;5020089;28;20732;-58
2024/02/02 05:15:28;;;;;;;9.00;6.00;;;6.70;99.90;;;;;;5020289;28;20719;-59
2024/02/02 05:17:55;;;;;;;9.03;6.10;;;6.70;99.90;;;;;;5023358;28;20202;-58
2024/02/02 05:20:21;;;;;;;8.90;6.30;;;6.80;99.90;;;;;;5023492;28;20706;-59
2024/02/02 05:22:48;;;;;;;9.37;5.53;;;6.80;99.90;;;;;;5020237;28;20232;-60
2024/02/02 05:25:15;;;;;;;7.73;5.30;;;6.80;99.90;;;;;;5020321;28;20207;-58
2024/02/02 05:27:41;;;;;;;10.07;6.07;;;6.90;99.90;;;;;;5021948;28;20211;-58
2024/02/02 05:30:10;;;;;;;9.00;6.17;;;6.90;99.90;;;;;;5023583;28;20213;-59
2024/02/02 05:32:36;;;;;;;10.23;6.33;;;6.90;99.90;;;;;;5022114;28;20237;-59
2024/02/02 05:35:04;;;;;;;10.17;5.20;;;6.90;99.90;;;;;;5019946;28;20223;-58
2024/02/02 05:37:31;;;;;;;6.97;5.73;;;6.80;99.90;;;;;;5020294;28;20231;-58
2024/02/02 05:39:58;;;;;;;7.27;5.63;;;6.80;99.90;;;;;;5023421;28;20210;-60
2024/02/02 05:42:25;;;;;;;9.33;5.20;;;6.80;99.90;;;;;;5023238;28;20226;-59
2024/02/02 05:44:52;;;;;;;6.90;5.23;;;6.90;99.90;;;;;;5023328;28;20590;-60
2024/02/02 05:47:20;;;;;;;7.87;5.10;;;6.90;99.90;;;;;;5026461;28;20209;-58
2024/02/02 05:49:46;;;;;;;7.67;5.30;;;6.90;99.90;;;;;;5024413;28;20215;-58
2024/02/02 05:52:13;;;;;;;6.87;4.80;;;6.90;99.90;;;;;;5024054;28;20230;-58
2024/02/02 05:54:40;;;;;;;7.73;5.47;;;6.90;99.90;;;;;;5025709;28;20206;-59
2024/02/02 05:57:06;;;;;;;7.33;4.93;;;7.00;99.90;;;;;;5026970;28;20283;-58
2024/02/02 05:59:33;;;;;;;7.60;5.07;;;7.00;99.90;;;;;;5026196;28;20214;-59
2024/02/02 06:02:00;;;;;;;8.17;4.70;;;7.10;99.90;;;;;;5023581;28;20223;-60
2024/02/02 06:04:28;;;;;;;9.63;5.40;;;7.20;99.90;;;;;;5023394;28;20207;-59
2024/02/02 06:06:55;;;;;;;11.33;5.80;;;7.30;99.90;;;;;;5015821;28;20289;-58
2024/02/02 06:09:21;;;;;;;8.73;5.67;;;7.30;99.90;;;;;;5023615;28;20245;-60
2024/02/02 06:11:48;;;;;;;9.10;5.23;;;7.40;99.90;;;;;;5026183;28;20287;-59
2024/02/02 06:14:14;;;;;;;6.87;4.97;;;7.50;99.90;;;;;;5026744;28;20259;-58
2024/02/02 06:16:41;;;;;;;6.40;5.23;;;7.50;99.90;;;;;;5024770;28;20230;-59
2024/02/02 06:19:08;;;;;;;11.73;6.77;;;7.50;99.90;;;;;;5023122;28;20230;-60
2024/02/02 06:21:36;;;;;;;8.17;5.77;;;7.60;99.90;;;;;;5024333;28;20301;-60
2024/02/02 06:24:03;;;;;;;9.73;5.80;;;7.70;99.90;;;;;;5026742;28;20198;-59
2024/02/02 06:26:30;;;;;;;8.97;5.30;;;7.70;99.90;;;;;;5026265;28;20289;-58
2024/02/02 06:28:56;;;;;;;8.30;6.07;;;7.80;99.90;;;;;;5023021;28;20200;-61
2024/02/02 06:31:25;;;;;;;7.63;5.50;;;7.70;99.90;;;;;;5022902;28;20208;-59
2024/02/02 06:33:52;;;;;;;9.60;5.47;;;7.70;99.90;;;;;;5026295;28;20234;-59
2024/02/02 06:36:18;;;;;;;8.87;5.27;;;7.70;99.90;;;;;;5026420;28;20218;-60
2024/02/02 06:38:46;;;;;;;8.83;5.53;;;7.70;99.90;;;;;;5023631;28;20214;-59
2024/02/02 06:41:13;;;;;;;7.63;5.73;;;7.60;99.90;;;;;;5022971;28;20585;-59
2024/02/02 06:43:40;;;;;;;11.63;5.20;;;7.60;99.90;;;;;;5024400;28;20222;-59
2024/02/02 06:46:06;;;;;;;7.00;5.60;;;7.60;99.90;;;;;;5026196;28;20586;-58
2024/02/02 06:48:33;;;;;;;9.53;5.90;;;7.60;99.90;;;;;;5025256;28;20210;-60
2024/02/02 06:51:00;;;;;;;10.53;5.67;;;7.60;99.90;;;;;;5022570;28;20203;-59
2024/02/02 06:53:29;;;;;;;7.50;5.53;;;7.60;99.90;;;;;;5022795;28;20268;-58
2024/02/02 06:55:57;;;;;;;12.47;6.40;;;7.50;99.90;;;;;;5015094;28;20241;-59
2024/02/02 06:58:39;;;;;;;9.37;6.60;;;7.50;99.90;;;;;;5022170;28;20207;-59
2024/02/02 07:01:06;;;;;;;10.63;7.50;;;7.60;99.90;;;;;;5016238;28;20730;-58
2024/02/02 07:03:33;;;;;;;13.60;7.37;;;7.60;99.90;;;;;;5022973;28;20281;-58
2024/02/02 07:06:00;;;;;;;8.90;6.83;;;7.60;99.90;;;;;;5025756;28;20664;-59
2024/02/02 07:08:27;;;;;;;11.77;6.37;;;7.60;99.90;;;;;;5025477;28;20730;-59
2024/02/02 07:11:09;;;;;;;12.03;7.73;;;7.60;99.90;;;;;;5022152;28;20210;-59
2024/02/02 07:13:46;;;;;;;8.90;6.27;;;7.60;99.90;;;;;;5023189;28;20234;-59
2024/02/02 07:16:14;;;;;;;11.93;7.10;;;7.60;99.90;;;;;;5025790;28;20225;-59
2024/02/02 07:18:42;;;;;;;12.33;6.57;;;7.70;99.90;;;;;;5023832;28;20297;-59
2024/02/02 07:21:12;;;;;;;9.77;6.03;;;7.70;99.90;;;;;;5022248;28;20699;-59
2024/02/02 07:23:41;;;;;;;10.37;5.93;;;7.70;99.90;;;;;;5022956;28;20227;-61
2024/02/02 07:26:28;;;;;;;7.87;5.47;;;7.80;99.90;;;;;;5025672;28;20305;-60
2024/02/02 07:28:55;;;;;;;7.83;5.43;;;7.80;99.90;;;;;;5022191;28;20230;-60
2024/02/02 07:31:36;;;;;;;8.63;5.53;;;7.60;99.90;;;;;;5021964;28;20203;-60
2024/02/02 07:34:30;;;;;;;7.97;5.47;;;7.70;99.90;;;;;;5014979;28;20294;-60
2024/02/02 07:36:57;;;;;;;9.33;5.07;;;7.80;99.90;;;;;;5013744;28;20762;-60
2024/02/02 07:39:27;;;;;;;7.43;5.43;;;7.80;99.90;;;;;;5021914;28;20586;-60
2024/02/02 07:41:55;;;;;;;10.17;6.50;;;7.80;99.90;;;;;;5024753;28;20260;-60
2024/02/02 07:44:22;;;;;;;7.57;5.27;;;7.80;99.90;;;;;;5025106;28;20210;-60
2024/02/02 07:46:49;;;;;;;8.80;5.23;;;7.80;99.90;;;;;;5022494;28;20205;-60
2024/02/02 07:49:16;;;;;;;7.60;5.17;;;7.80;99.90;;;;;;5021961;28;20373;-60
2024/02/02 07:51:43;;;;;;;7.77;5.27;;;7.90;99.90;;;;;;5023265;28;20242;-59
2024/02/02 07:54:10;;;;;;;10.30;5.27;;;8.00;99.90;;;;;;5024816;28;20700;-61
2024/02/02 07:56:36;;;;;;;8.33;5.43;;;8.00;99.90;;;;;;5023825;28;20222;-60
2024/02/02 07:59:04;;;;;;;6.97;5.23;;;8.10;99.90;;;;;;5021129;28;20600;-61
2024/02/02 08:01:33;;;;;;;7.43;5.80;;;8.20;99.90;;;;;;5021367;28;20629;-59
2024/02/02 08:04:00;;;;;;;9.17;5.30;;;8.30;99.90;;;;;;5024772;28;20649;-58
2024/02/02 08:06:27;;;;;;;9.10;5.77;;;8.50;99.90;;;;;;5024890;28;20206;-58
2024/02/02 08:08:53;;;;;;;8.37;5.50;;;8.50;99.90;;;;;;5020663;28;20285;-60
2024/02/02 08:11:24;;;;;;;10.73;5.33;;;8.70;99.90;;;;;;5020813;28;20205;-58
2024/02/02 08:13:51;;;;;;;7.07;5.13;;;8.60;99.90;;;;;;5024149;28;20211;-59
2024/02/02 08:16:19;;;;;;;7.10;5.50;;;8.60;99.90;;;;;;5024391;28;20214;-59
2024/02/02 08:18:46;;;;;;;9.50;5.47;;;8.70;99.90;;;;;;5022144;28;20668;-59
2024/02/02 08:21:12;;;;;;;10.00;5.63;;;8.80;99.90;;;;;;5018580;28;20198;-58
2024/02/02 08:23:39;;;;;;;11.23;5.87;;;8.90;99.90;;;;;;5023348;28;20214;-59
2024/02/02 08:26:06;;;;;;;7.87;5.97;;;9.00;99.90;;;;;;5020830;28;20195;-58
2024/02/02 08:28:32;;;;;;;9.63;5.67;;;9.00;99.90;;;;;;5020943;28;20310;-58
2024/02/02 08:30:59;;;;;;;7.43;5.10;;;9.10;99.90;;;;;;5024580;28;20207;-59
2024/02/02 08:33:27;;;;;;;9.50;5.83;;;9.20;99.90;;;;;;5024321;28;20230;-58
2024/02/02 08:35:54;;;;;;;9.23;6.20;;;9.30;99.90;;;;;;5020919;28;20203;-58
2024/02/02 08:38:21;;;;;;;10.10;5.50;;;9.30;99.90;;;;;;5020543;28;20284;-58
2024/02/02 08:40:49;;;;;;;8.63;5.13;;;9.50;99.90;;;;;;5022679;28;20226;-58
2024/02/02 08:43:19;;;;;;;7.60;4.70;;;9.40;99.90;;;;;;5023908;28;20229;-58
2024/02/02 08:46:09;;;;;;;11.20;5.40;;;9.20;99.90;;;;;;5022068;28;20206;-59
2024/02/02 08:48:41;;;;;;;7.60;5.40;;;9.10;99.90;;;;;;5020738;28;20238;-58
2024/02/02 08:51:46;;;;;;;10.07;6.47;;;9.30;99.90;;;;;;5023793;28;20646;-61
2024/02/02 08:54:33;;;;;;;14.33;10.63;;;9.50;99.90;;;;;;5014546;28;20230;-58
2024/02/02 08:57:29;;;;;;;7.00;5.60;;;9.60;99.90;;;;;;5019982;28;20739;-58
2024/02/02 08:59:55;;;;;;;7.47;6.03;;;9.80;99.90;;;;;;5023750;28;20292;-59
2024/02/02 09:02:53;;;;;;;7.93;5.53;;;9.90;99.90;;;;;;5023806;28;20228;-59
2024/02/02 09:05:22;;;;;;;8.03;5.10;;;9.70;99.90;;;;;;5015194;28;20215;-60
2024/02/02 09:07:52;;;;;;;9.30;5.60;;;9.70;99.90;;;;;;5022167;28;20468;-59
2024/02/02 09:10:56;;;;;;;7.23;5.10;;;9.90;99.90;;;;;;5023749;28;20598;-60
2024/02/02 09:13:25;;;;;;;10.07;5.30;;;10.10;99.90;;;;;;5015282;28;20607;-60
2024/02/02 09:15:52;;;;;;;6.43;5.30;;;10.30;99.90;;;;;;5022470;28;20691;-60
2024/02/02 09:18:30;;;;;;;8.13;5.80;;;10.40;99.90;;;;;;5023149;28;20251;-59
2024/02/02 09:20:59;;;;;;;8.40;5.30;;;10.50;99.90;;;;;;5020058;28;20206;-60
2024/02/02 09:23:27;;;;;;;7.67;5.60;;;10.70;99.90;;;;;;5020149;28;20226;-60
2024/02/02 09:25:54;;;;;;;7.60;5.60;;;10.80;99.90;;;;;;5022645;28;20691;-59
2024/02/02 09:28:38;;;;;;;6.13;4.87;;;10.90;99.90;;;;;;5023138;28;20206;-60
2024/02/02 09:31:07;;;;;;;7.53;5.20;;;11.00;99.90;;;;;;5013015;28;20199;-60
2024/02/02 09:33:48;;;;;;;7.70;4.67;;;11.10;99.90;;;;;;5019706;28;20618;-60
2024/02/02 09:36:16;;;;;;;10.23;7.63;;;11.20;99.90;;;;;;5023341;28;20225;-60
2024/02/02 09:38:56;;;;;;;9.27;5.80;;;11.40;99.90;;;;;;5021688;28;20206;-60
2024/02/02 09:41:50;;;;;;;8.67;5.93;;;11.50;99.90;;;;;;5019783;28;20203;-57
2024/02/02 09:44:42;;;;;;;6.20;4.63;;;11.50;99.90;;;;;;5069576;22;20287;-59
2024/02/02 09:47:29;;;;;;;5.73;4.43;;;11.40;99.90;;;;;;5044151;28;20693;-59
2024/02/02 09:50:05;;;;;;;5.57;4.10;;;11.10;99.90;;;;;;5051418;28;20207;-60
2024/02/02 09:52:43;;;;;;;6.60;4.20;;;11.10;99.90;;;;;;5051404;28;20290;-60
2024/02/02 09:55:19;;;;;;;5.40;4.40;;;11.30;99.90;;;;;;5044497;28;20287;-59
2024/02/02 09:57:53;;;;;;;5.70;4.97;;;11.50;99.90;;;;;;5051021;28;20315;-60
2024/02/02 10:00:26;;;;;;;6.13;4.70;;;11.80;99.90;;;;;;5051418;28;20212;-59
2024/02/02 10:03:10;;;;;;;5.13;4.20;;;12.00;99.90;;;;;;5050828;28;20225;-59
2024/02/02 10:05:49;;;;;;;5.40;4.13;;;12.00;99.90;;;;;;5051082;28;20205;-59
2024/02/02 10:08:37;;;;;;;8.73;4.50;;;12.20;99.90;;;;;;5050703;28;20259;-60
2024/02/02 10:11:22;;;;;;;4.90;4.10;;;12.20;99.90;;;;;;5043679;28;20671;-61
2024/02/02 10:14:04;;;;;;;13.87;9.07;;;12.10;99.90;;;;;;5051048;28;20406;-60
2024/02/02 10:16:40;;;;;;;5.40;4.60;;;12.10;99.90;;;;;;5051429;28;20231;-60
2024/02/02 10:19:43;;;;;;;6.53;5.23;;;12.10;99.90;;;;;;5043314;28;20671;-60
2024/02/02 10:22:29;;;;;;;6.30;5.10;;;12.20;99.90;;;;;;5033085;28;20209;-60
2024/02/02 10:25:14;;;;;;;6.50;5.00;;;12.10;99.90;;;;;;5050825;28;20229;-60
2024/02/02 10:28:01;;;;;;;5.63;4.60;;;12.10;99.90;;;;;;5050612;28;20212;-60
2024/02/02 10:30:37;;;;;;;6.27;4.70;;;12.10;99.90;;;;;;5050676;28;20693;-59
2024/02/02 10:33:28;;;;;;;7.53;4.97;;;12.30;99.90;;;;;;5044168;28;20218;-60
2024/02/02 10:36:07;;;;;;;6.33;4.90;;;12.60;99.90;;;;;;5054823;28;20222;-60
2024/02/02 10:38:57;;;;;;;9.27;5.20;;;12.80;99.90;;;;;;5054368;28;20278;-60
2024/02/02 10:41:37;;;;;;;7.23;5.20;;;12.80;99.90;;;;;;5049271;28;20247;-59
2024/02/02 10:44:15;;;;;;;7.93;5.30;;;12.70;99.90;;;;;;5046351;28;20634;-59
2024/02/02 10:46:52;;;;;;;7.13;4.90;;;12.50;99.90;;;;;;5054198;28;20725;-59
2024/02/02 10:49:35;;;;;;;7.47;4.97;;;12.60;99.90;;;;;;5054410;28;20209;-59
2024/02/02 10:52:12;;;;;;;10.27;5.27;;;12.50;99.90;;;;;;5046095;28;20648;-58
2024/02/02 10:54:53;;;;;;;7.03;5.60;;;12.50;99.90;;;;;;5054263;28;20243;-59
2024/02/02 10:57:27;;;;;;;6.30;5.10;;;12.50;99.90;;;;;;5053680;28;20217;-58
2024/02/02 11:00:08;;;;;;;8.60;6.83;;;12.40;99.90;;;;;;5053896;28;20300;-57
2024/02/02 11:02:44;;;;;;;9.00;5.90;;;12.30;99.90;;;;;;5053927;28;20274;-59
2024/02/02 11:05:20;;;;;;;12.87;6.53;;;12.30;99.90;;;;;;5047058;28;20274;-59
2024/02/02 11:07:50;;;;;;;7.13;5.20;;;12.40;99.90;;;;;;5053751;28;20661;-59
2024/02/02 11:10:23;;;;;;;7.40;4.37;;;12.40;99.90;;;;;;5053701;28;20206;-59
2024/02/02 11:12:59;;;;;;;7.17;4.60;;;12.40;99.90;;;;;;5053717;28;20577;-60
2024/02/02 11:15:42;;;;;;;7.43;4.47;;;12.40;99.90;;;;;;5053763;28;20209;-58
2024/02/02 11:18:26;;;;;;;6.33;3.80;;;12.50;99.90;;;;;;5046196;28;20275;-60
2024/02/02 11:21:08;;;;;;;5.80;4.20;;;12.50;99.90;;;;;;5050439;28;20217;-62
2024/02/02 11:23:40;;;;;;;5.97;4.37;;;12.60;99.90;;;;;;5053115;28;20229;-63
2024/02/02 11:26:12;;;;;;;7.20;3.50;;;12.70;99.90;;;;;;5045643;28;20745;-65
2024/02/02 11:28:55;;;;;;;8.10;4.93;;;12.70;99.90;;;;;;5046745;28;20323;-64
2024/02/02 11:31:34;;;;;;;4.43;3.47;;;12.70;99.90;;;;;;5051036;28;20607;-63
2024/02/02 11:34:11;;;;;;;5.40;4.47;;;12.80;99.90;;;;;;5053013;28;20630;-63
2024/02/02 11:36:53;;;;;;;4.63;3.30;;;13.10;99.90;;;;;;5052703;28;20670;-63
2024/02/02 11:39:34;;;;;;;5.00;2.73;;;13.20;99.90;;;;;;5053071;28;20216;-64
2024/02/02 11:42:03;;;;;;;4.03;3.00;;;13.30;99.90;;;;;;5052618;28;20690;-66
2024/02/02 11:44:33;;;;;;;3.53;2.70;;;13.50;99.90;;;;;;5052532;28;20300;-64
2024/02/02 11:47:00;;;;;;;4.07;2.63;;;13.50;99.90;;;;;;5044251;28;20209;-65
2024/02/02 11:49:30;;;;;;;3.00;2.33;;;13.60;99.90;;;;;;5052950;28;20249;-63
2024/02/02 11:52:04;;;;;;;4.97;2.53;;;13.60;99.90;;;;;;5052973;28;20287;-63
2024/02/02 11:54:39;;;;;;;4.57;2.90;;;13.70;99.90;;;;;;5052645;28;20204;-66
2024/02/02 11:57:07;;;;;;;3.33;2.67;;;13.70;99.90;;;;;;5052966;28;20623;-65
2024/02/02 11:59:40;;;;;;;4.87;3.17;;;13.70;99.90;;;;;;5052656;28;20275;-65
2024/02/02 12:02:34;;;;;;;7.00;3.00;;;13.90;99.90;;;;;;5052455;28;20267;-63
2024/02/02 12:05:07;;;;;;;5.17;2.93;;;14.10;99.90;;;;;;5052404;28;20244;-65
2024/02/02 12:07:43;;;;;;;2.80;2.37;;;14.20;99.90;;;;;;5052664;28;20225;-64
2024/02/02 12:10:16;;;;;;;4.97;2.60;;;14.30;99.90;;;;;;5052688;28;20209;-64
2024/02/02 12:12:45;;;;;;;7.70;2.43;;;14.40;99.90;;;;;;5054202;28;20228;-64
2024/02/02 12:15:14;;;;;;;2.43;1.87;;;14.50;99.90;;;;;;5052506;28;20205;-61
2024/02/02 12:17:41;;;;;;;2.30;1.63;;;14.60;99.90;;;;;;5052261;28;20228;-61
2024/02/02 12:20:16;;;;;;;1.93;1.50;;;14.60;99.90;;;;;;5052606;28;20363;-61
2024/02/02 12:22:44;;;;;;;1.37;1.17;;;14.70;99.90;;;;;;5052372;28;20275;-61
2024/02/02 12:25:13;;;;;;;2.60;1.67;;;14.50;99.90;;;;;;5052591;28;20591;-62
2024/02/02 12:27:40;;;;;;;3.33;1.43;;;14.50;99.90;;;;;;5051788;28;20263;-62
2024/02/02 12:30:08;;;;;;;4.73;1.67;;;14.40;99.90;;;;;;5052413;28;20229;-61
2024/02/02 12:32:37;;;;;;;4.90;1.30;;;14.40;99.90;;;;;;5052114;28;20806;-62
2024/02/02 12:35:05;;;;;;;2.63;1.50;;;14.50;99.90;;;;;;5052297;28;20212;-61
2024/02/02 12:37:31;;;;;;;1.27;1.17;;;14.40;99.90;;;;;;5051927;28;20366;-61
2024/02/02 12:39:58;;;;;;;1.80;1.63;;;14.50;99.90;;;;;;5052259;28;20250;-61
2024/02/02 12:42:25;;;;;;;4.13;1.60;;;14.60;99.90;;;;;;5051649;28;20659;-61
2024/02/02 12:44:52;;;;;;;3.37;1.43;;;14.70;99.90;;;;;;5052237;28;20267;-60
2024/02/02 12:47:26;;;;;;;3.43;1.67;;;14.80;99.90;;;;;;5052111;28;20285;-61
2024/02/02 12:49:54;;;;;;;2.03;1.37;;;14.70;99.90;;;;;;5052045;28;20229;-61
2024/02/02 12:52:21;;;;;;;2.67;1.63;;;14.60;99.90;;;;;;5051899;28;20229;-60
2024/02/02 12:54:51;;;;;;;2.50;1.70;;;14.60;99.90;;;;;;5052137;28;20209;-61
2024/02/02 12:57:17;;;;;;;1.77;1.23;;;14.70;99.90;;;;;;5051392;28;20658;-61
2024/02/02 12:59:44;;;;;;;1.60;1.10;;;14.70;99.90;;;;;;5051817;28;20205;-61
2024/02/02 13:02:13;;;;;;;2.33;1.50;;;14.60;99.90;;;;;;5052059;28;20259;-62
2024/02/02 13:04:41;;;;;;;1.20;1.10;;;14.60;99.90;;;;;;5051886;28;20478;-61
2024/02/02 13:07:09;;;;;;;3.10;1.50;;;14.60;99.90;;;;;;5051430;28;20705;-61
2024/02/02 13:09:40;;;;;;;2.73;2.20;;;14.60;99.90;;;;;;5051492;28;20616;-61